Time;durP1;ratioP1;P1;durP2;ratioP2;P2;SDS_P1;SDS_P2;PMS_P1;PMS_P2;Temp;Humidity;BMP_temperature;BMP_pressure;BME280_temperature;BME280_humidity;BME280_pressure;Samples;Min_cycle;Max_cycle;Signal;HPM_P1;HPM_P2
2024/03/12 00:01:25;;;;;;;1.77;1.67;;;;;;;10.63;58.48;94429.75;5030638;28;20198;-85
2024/03/12 00:03:52;;;;;;;2.13;1.80;;;;;;;10.64;58.67;94438.28;5030201;28;20202;-85
2024/03/12 00:06:19;;;;;;;3.37;2.00;;;;;;;10.55;58.71;94445.44;5030108;28;20716;-85
2024/03/12 00:08:46;;;;;;;2.40;2.20;;;;;;;10.60;58.84;94457.69;5030305;28;20295;-85
2024/03/12 00:11:13;;;;;;;2.73;2.03;;;;;;;10.60;58.68;94458.47;5030514;28;20198;-85
2024/03/12 00:13:41;;;;;;;2.57;1.60;;;;;;;10.56;58.83;94462.47;5029365;28;20229;-86
2024/03/12 00:16:07;;;;;;;2.30;2.00;;;;;;;10.54;59.29;94471.38;5030309;28;20205;-86
2024/03/12 00:18:34;;;;;;;2.43;2.10;;;;;;;10.57;59.16;94473.56;5030640;28;20222;-85
2024/03/12 00:21:01;;;;;;;2.50;2.00;;;;;;;10.58;59.21;94482.84;5029982;28;20629;-85
2024/03/12 00:23:28;;;;;;;2.33;1.90;;;;;;;10.61;59.26;94492.72;5030201;28;20229;-85
2024/03/12 00:25:55;;;;;;;2.13;1.90;;;;;;;10.64;58.85;94485.38;5029505;28;20629;-85
2024/03/12 00:28:23;;;;;;;3.10;1.70;;;;;;;10.62;59.16;94489.94;5041024;28;20308;-85
2024/03/12 00:30:53;;;;;;;2.30;1.80;;;;;;;10.61;58.80;94498.66;5049894;28;20251;-85
2024/03/12 00:33:21;;;;;;;2.20;2.00;;;;;;;10.64;59.30;94502.63;5048978;28;20228;-86
2024/03/12 00:35:47;;;;;;;2.30;2.10;;;;;;;10.69;58.96;94498.44;5049752;28;20742;-85
2024/03/12 00:38:13;;;;;;;2.60;1.83;;;;;;;10.68;59.17;94507.16;5049616;28;20217;-85
2024/03/12 00:40:42;;;;;;;2.00;1.80;;;;;;;10.69;59.02;94511.31;5041016;28;20255;-85
2024/03/12 00:43:09;;;;;;;2.40;2.20;;;;;;;10.66;59.28;94513.50;5049624;28;20193;-86
2024/03/12 00:45:38;;;;;;;1.90;1.80;;;;;;;10.64;59.22;94515.47;5049686;28;20213;-86
2024/03/12 00:48:09;;;;;;;2.20;2.00;;;;;;;10.59;59.62;94520.44;5048383;28;20225;-85
2024/03/12 00:50:36;;;;;;;1.97;1.80;;;;;;;10.58;59.42;94531.75;5029394;28;20213;-85
2024/03/12 00:53:03;;;;;;;2.40;2.10;;;;;;;10.55;60.06;94539.88;5029351;28;20225;-86
2024/03/12 00:55:30;;;;;;;1.83;1.73;;;;;;;10.58;59.93;94547.97;5028859;28;20240;-86
2024/03/12 00:57:58;;;;;;;1.93;1.80;;;;;;;10.62;59.69;94544.00;5029210;28;20650;-85
2024/03/12 01:00:26;;;;;;;1.97;1.87;;;;;;;10.64;59.61;94544.59;5029766;28;20292;-85
2024/03/12 01:02:54;;;;;;;1.90;1.70;;;;;;;10.57;60.03;94548.97;5029686;28;20198;-84
2024/03/12 01:05:24;;;;;;;1.93;1.73;;;;;;;10.54;59.80;94561.47;5029090;28;20241;-86
2024/03/12 01:07:52;;;;;;;2.63;1.90;;;;;;;10.55;60.02;94566.41;5028795;28;20226;-85
2024/03/12 01:10:20;;;;;;;2.27;1.87;;;;;;;10.52;59.96;94573.72;5029328;28;20202;-85
2024/03/12 01:12:50;;;;;;;1.87;1.70;;;;;;;10.56;60.26;94568.00;5041538;28;20280;-85
2024/03/12 01:15:18;;;;;;;2.10;1.87;;;;;;;10.55;60.05;94563.84;5048878;28;20232;-86
2024/03/12 01:17:47;;;;;;;3.10;1.70;;;;;;;10.48;60.24;94575.13;5048774;28;20222;-85
2024/03/12 01:20:16;;;;;;;2.13;1.80;;;;;;;10.39;60.66;94590.75;5049003;28;20247;-86
2024/03/12 01:22:44;;;;;;;1.80;1.70;;;;;;;10.39;60.81;94593.31;5048905;28;20204;-85
2024/03/12 01:25:11;;;;;;;1.93;1.70;;;;;;;10.42;60.73;94599.84;5032014;28;20758;-85
2024/03/12 01:27:38;;;;;;;2.00;1.80;;;;;;;10.40;60.77;94588.97;5017192;28;20776;-85
2024/03/12 01:30:07;;;;;;;1.80;1.70;;;;;;;10.34;60.84;94595.72;5028783;28;20287;-85
2024/03/12 01:32:34;;;;;;;1.90;1.70;;;;;;;10.35;60.79;94599.09;5028541;28;20410;-86
2024/03/12 01:35:03;;;;;;;2.10;1.70;;;;;;;10.33;61.13;94606.22;5037550;28;20225;-85
2024/03/12 01:37:29;;;;;;;2.10;1.80;;;;;;;10.35;60.98;94602.44;5042842;28;20221;-85
2024/03/12 01:39:57;;;;;;;1.70;1.60;;;;;;;10.26;61.24;94606.19;5048366;28;20205;-85
2024/03/12 01:42:23;;;;;;;1.70;1.60;;;;;;;10.32;60.92;94613.13;5048050;28;20205;-85
2024/03/12 01:44:51;;;;;;;2.70;1.67;;;;;;;10.31;61.34;94613.34;5048258;28;20559;-85
2024/03/12 01:47:18;;;;;;;2.27;1.70;;;;;;;10.22;61.69;94625.59;5047732;28;20247;-85
2024/03/12 01:49:48;;;;;;;2.60;1.90;;;;;;;10.24;61.69;94630.53;5034180;28;20290;-86
2024/03/12 01:52:16;;;;;;;1.87;1.60;;;;;;;10.27;61.50;94630.94;5030342;28;20237;-85
2024/03/12 01:54:43;;;;;;;1.80;1.63;;;;;;;10.22;61.68;94635.88;5032408;28;20233;-85
2024/03/12 01:57:11;;;;;;;1.90;1.80;;;;;;;10.20;61.92;94639.66;5032655;28;20325;-85
2024/03/12 01:59:38;;;;;;;1.87;1.77;;;;;;;10.21;61.66;94651.50;5032648;28;20206;-85
2024/03/12 02:02:05;;;;;;;1.87;1.63;;;;;;;10.24;61.56;94646.75;5032085;28;20225;-85
2024/03/12 02:04:31;;;;;;;3.57;1.90;;;;;;;10.26;61.42;94649.13;5032437;28;20210;-85
2024/03/12 02:06:58;;;;;;;1.70;1.60;;;;;;;10.31;61.56;94644.22;5032242;28;20210;-85
2024/03/12 02:09:25;;;;;;;1.80;1.70;;;;;;;10.33;61.46;94649.94;5032321;28;20266;-87
2024/03/12 02:11:51;;;;;;;1.80;1.63;;;;;;;10.34;61.48;94657.47;5037553;28;20701;-86
2024/03/12 02:14:19;;;;;;;1.90;1.77;;;;;;;10.34;61.39;94661.81;5052392;28;20292;-86
2024/03/12 02:16:46;;;;;;;1.90;1.70;;;;;;;10.31;61.69;94662.22;5051807;28;20232;-86
2024/03/12 02:19:13;;;;;;;1.80;1.60;;;;;;;10.33;61.39;94662.81;5052909;28;20217;-85
2024/03/12 02:21:39;;;;;;;2.23;1.90;;;;;;;10.36;61.49;94665.78;5033784;28;20722;-85
2024/03/12 02:24:07;;;;;;;1.70;1.60;;;;;;;10.34;61.76;94666.97;5020886;28;20233;-85
2024/03/12 02:26:34;;;;;;;1.67;1.57;;;;;;;10.28;61.96;94678.81;5032205;28;20213;-85
2024/03/12 02:29:01;;;;;;;1.70;1.60;;;;;;;10.29;61.93;94680.41;5031853;28;20295;-85
2024/03/12 02:31:28;;;;;;;1.63;1.53;;;;;;;10.33;62.02;94685.97;5040800;28;20198;-86
2024/03/12 02:33:58;;;;;;;1.73;1.60;;;;;;;10.30;62.06;94694.06;5049275;28;20213;-86
2024/03/12 02:36:25;;;;;;;2.23;1.77;;;;;;;10.37;61.99;94689.75;5052164;28;20206;-85
2024/03/12 02:38:53;;;;;;;1.80;1.70;;;;;;;10.35;61.84;94702.00;5051507;28;20225;-85
2024/03/12 02:41:22;;;;;;;1.83;1.73;;;;;;;10.34;62.00;94695.28;5051733;28;20205;-85
2024/03/12 02:43:48;;;;;;;2.07;1.87;;;;;;;10.36;62.21;94701.81;5051020;28;20267;-86
2024/03/12 02:46:15;;;;;;;2.20;2.00;;;;;;;10.39;61.97;94706.53;5051884;28;20201;-86
2024/03/12 02:48:42;;;;;;;1.70;1.60;;;;;;;10.36;62.02;94709.53;5045624;28;20597;-85
2024/03/12 02:51:08;;;;;;;1.90;1.80;;;;;;;10.35;62.14;94709.72;5032005;28;20284;-86
2024/03/12 02:53:35;;;;;;;2.43;1.80;;;;;;;10.39;62.14;94721.22;5031124;28;20232;-86
2024/03/12 02:56:02;;;;;;;1.80;1.70;;;;;;;10.43;61.75;94708.72;5031484;28;20206;-85
2024/03/12 02:58:29;;;;;;;2.10;1.90;;;;;;;10.35;62.12;94725.94;5031598;28;20240;-86
2024/03/12 03:00:56;;;;;;;2.00;1.80;;;;;;;10.37;62.23;94726.56;5031726;28;20390;-85
2024/03/12 03:03:22;;;;;;;2.90;1.70;;;;;;;10.37;62.51;94728.34;5030637;28;20589;-85
2024/03/12 03:05:51;;;;;;;2.00;1.80;;;;;;;10.39;62.51;94729.69;5031815;28;20202;-86
2024/03/12 03:08:18;;;;;;;2.20;2.00;;;;;;;10.37;62.58;94733.47;5031116;28;20222;-86
2024/03/12 03:10:45;;;;;;;2.77;2.00;;;;;;;10.40;62.37;94730.50;5031292;28;20202;-85
2024/03/12 03:13:12;;;;;;;2.77;1.87;;;;;;;10.38;62.64;94732.50;5047243;28;20201;-85
2024/03/12 03:15:41;;;;;;;2.03;1.83;;;;;;;10.37;62.58;94742.00;5050785;28;20222;-85
2024/03/12 03:18:08;;;;;;;3.03;1.80;;;;;;;10.34;62.59;94755.25;5051546;28;20218;-85
2024/03/12 03:20:35;;;;;;;2.20;2.00;;;;;;;10.37;62.66;94751.50;5051468;28;20209;-84
2024/03/12 03:23:02;;;;;;;2.20;2.00;;;;;;;10.40;62.36;94756.22;5051088;28;20305;-85
2024/03/12 03:25:29;;;;;;;2.30;2.10;;;;;;;10.38;62.64;94759.00;5050887;28;20576;-86
2024/03/12 03:27:56;;;;;;;2.63;2.43;;;;;;;10.38;62.62;94761.59;5032255;28;20248;-85
2024/03/12 03:30:22;;;;;;;2.40;2.20;;;;;;;10.38;62.63;94764.16;5041419;28;20895;-85
2024/03/12 03:32:52;;;;;;;2.10;1.90;;;;;;;10.34;63.01;94780.19;5051204;28;20209;-85
2024/03/12 03:35:19;;;;;;;2.43;2.23;;;;;;;10.31;63.18;94783.94;5049469;28;20298;-86
2024/03/12 03:37:46;;;;;;;3.63;2.50;;;;;;;10.22;63.89;94807.44;5050797;28;20237;-86
2024/03/12 03:40:22;;;;;;;2.87;2.20;;;;;;;10.24;63.63;94813.19;5050656;28;20236;-85
2024/03/12 03:42:51;;;;;;;2.00;1.90;;;;;;;10.23;63.64;94816.72;5051341;28;20197;-85
2024/03/12 03:45:19;;;;;;;2.07;1.90;;;;;;;10.24;64.07;94823.47;5050730;28;20288;-86
2024/03/12 03:47:46;;;;;;;2.30;2.03;;;;;;;10.32;63.61;94818.97;5051212;28;20749;-86
2024/03/12 03:50:16;;;;;;;2.07;1.97;;;;;;;10.38;63.51;94810.47;5031722;28;20213;-85
2024/03/12 03:52:47;;;;;;;2.10;2.00;;;;;;;10.32;63.79;94820.75;5030504;28;20230;-85
2024/03/12 03:55:15;;;;;;;2.63;2.33;;;;;;;10.34;63.62;94823.91;5030199;28;20737;-85
2024/03/12 03:57:44;;;;;;;2.37;2.13;;;;;;;10.33;63.85;94830.03;5030198;28;20222;-86
2024/03/12 04:00:16;;;;;;;2.60;2.10;;;;;;;10.31;63.69;94837.16;5030420;28;20214;-86
2024/03/12 04:02:44;;;;;;;2.90;2.27;;;;;;;10.29;64.20;94845.06;5030294;28;20206;-85
2024/03/12 04:05:12;;;;;;;12.10;10.70;;;;;;;10.33;64.09;94851.44;5030594;28;20233;-85
2024/03/12 04:07:44;;;;;;;7.97;7.17;;;;;;;10.28;64.09;94848.63;5030080;28;20226;-85
2024/03/12 04:10:12;;;;;;;2.57;2.37;;;;;;;10.31;63.76;94839.72;5030633;28;20223;-86
2024/03/12 04:12:40;;;;;;;2.20;2.00;;;;;;;10.30;64.03;94848.44;5041663;28;20208;-86
2024/03/12 04:15:11;;;;;;;2.30;1.97;;;;;;;10.26;64.04;94854.94;5049951;28;20670;-86
2024/03/12 04:17:43;;;;;;;1.90;1.80;;;;;;;10.20;64.42;94866.78;5049937;28;20240;-85
2024/03/12 04:20:11;;;;;;;2.33;2.00;;;;;;;10.21;64.31;94880.44;5050062;28;20201;-86
2024/03/12 04:22:45;;;;;;;3.23;1.83;;;;;;;10.15;64.95;94883.78;5048483;28;20201;-86
2024/03/12 04:25:13;;;;;;;2.53;2.10;;;;;;;10.23;64.33;94889.56;5045892;28;20195;-85
2024/03/12 04:27:40;;;;;;;2.30;2.10;;;;;;;10.14;64.94;94897.63;5029496;28;20234;-85
2024/03/12 04:30:10;;;;;;;2.23;2.03;;;;;;;10.14;64.73;94902.75;5029863;28;20271;-85
2024/03/12 04:32:39;;;;;;;2.43;2.23;;;;;;;10.10;65.56;94915.19;5030453;28;20478;-86
2024/03/12 04:35:12;;;;;;;2.53;2.03;;;;;;;10.15;65.30;94914.63;5028893;28;20225;-86
2024/03/12 04:37:44;;;;;;;2.90;2.60;;;;;;;10.18;65.61;94916.84;5029560;28;20276;-86
2024/03/12 04:40:12;;;;;;;2.53;2.03;;;;;;;10.26;64.85;94920.06;5029510;28;20293;-86
2024/03/12 04:42:39;;;;;;;2.30;2.10;;;;;;;10.25;64.87;94910.75;5029002;28;20751;-85
2024/03/12 04:45:12;;;;;;;3.73;2.17;;;;;;;10.28;65.18;94918.09;5029204;28;20281;-85
2024/03/12 04:47:40;;;;;;;2.33;2.13;;;;;;;10.31;65.03;94922.06;5029674;28;20654;-86
2024/03/12 04:50:09;;;;;;;2.93;2.63;;;;;;;10.32;64.89;94924.44;5029268;28;20202;-86
2024/03/12 04:52:36;;;;;;;3.13;2.10;;;;;;;10.30;65.16;94930.75;5029912;28;20220;-85
2024/03/12 04:55:06;;;;;;;2.87;2.30;;;;;;;10.26;65.50;94948.34;5029573;28;20228;-85
2024/03/12 04:57:34;;;;;;;2.17;1.97;;;;;;;10.26;65.49;94958.66;5029507;28;20249;-85
2024/03/12 05:00:02;;;;;;;2.07;1.97;;;;;;;10.26;66.22;94991.28;5029931;28;20206;-85
2024/03/12 05:02:29;;;;;;;2.60;2.20;;;;;;;10.24;66.61;94994.06;5030260;28;20210;-85
2024/03/12 05:04:56;;;;;;;2.93;2.63;;;;;;;10.27;66.79;95010.91;5029183;28;20198;-85
2024/03/12 05:07:24;;;;;;;2.50;2.30;;;;;;;10.25;66.48;95013.66;5030159;28;20221;-84
2024/03/12 05:09:52;;;;;;;2.83;2.53;;;;;;;10.32;66.71;95019.66;5030388;28;20256;-85
2024/03/12 05:12:21;;;;;;;2.80;2.50;;;;;;;10.32;66.94;95026.56;5029967;28;20190;-86
2024/03/12 05:14:48;;;;;;;2.40;2.20;;;;;;;10.34;66.61;95032.31;5028927;28;20303;-85
2024/03/12 05:17:18;;;;;;;2.50;2.30;;;;;;;10.35;66.95;95037.28;5029211;28;20221;-85
2024/03/12 05:19:44;;;;;;;2.73;2.30;;;;;;;10.37;67.19;95049.97;5040230;28;20248;-85
2024/03/12 05:22:11;;;;;;;3.00;2.63;;;;;;;10.34;67.20;95045.19;5037957;28;20217;-85
2024/03/12 05:30:49;;;;;;;4.13;2.70;;;;;;;10.30;67.60;95061.97;5078909;28;20209;-91
2024/03/12 05:33:56;;;;;;;3.27;2.97;;;;;;;10.26;68.26;95095.00;5095927;28;20196;-91
2024/03/12 05:36:41;;;;;;;2.90;2.70;;;;;;;10.26;68.15;95089.06;5072256;28;20224;-90
2024/03/12 05:54:08;;;;;;;3.50;3.20;;;;;;;10.20;68.33;95100.13;5041366;28;20209;-90
2024/03/12 06:06:55;;;;;;;3.63;3.33;;;;;;;10.04;69.16;95135.34;5051082;28;20316;-91
2024/03/12 06:09:30;;;;;;;3.93;3.63;;;;;;;10.05;68.91;95128.44;4990345;28;20207;-90
2024/03/12 06:15:42;;;;;;;3.33;3.10;;;;;;;10.01;69.74;95152.91;5038422;28;20233;-90
2024/03/12 06:19:01;;;;;;;;;;;;;;;;;;;;;
2024/03/12 06:22:21;;;;;;;3.83;3.40;;;;;;;10.11;68.84;95148.28;5071897;28;20196;-90
2024/03/12 06:25:05;;;;;;;5.47;4.83;;;;;;;10.03;68.68;95138.09;5046353;28;20197;-90
2024/03/12 06:31:29;;;;;;;3.60;3.30;;;;;;;9.88;68.61;95138.16;5038479;28;20197;-90
2024/03/12 06:37:10;;;;;;;5.70;4.90;;;;;;;9.90;68.59;95146.50;5043626;28;20237;-91
2024/03/12 06:39:44;;;;;;;4.37;3.70;;;;;;;10.00;68.16;95138.50;5050154;28;20679;-90
2024/03/12 06:45:11;;;;;;;9.27;3.40;;;;;;;10.00;68.14;95147.00;5050370;28;20221;-90
2024/03/12 06:48:01;;;;;;;4.80;3.43;;;;;;;10.08;67.97;95150.41;5052045;28;20711;-90
2024/03/12 06:50:32;;;;;;;3.63;3.13;;;;;;;10.31;67.16;95126.13;5051692;28;20695;-90
2024/03/12 06:53:01;;;;;;;3.30;3.00;;;;;;;10.47;66.28;95101.88;5051236;28;20212;-90
2024/03/12 06:56:27;;;;;;;3.20;2.90;;;;;;;10.52;66.17;95083.31;5050942;28;20225;-91
2024/03/12 06:59:18;;;;;;;3.67;3.30;;;;;;;10.35;66.19;95096.47;5007425;28;20206;-90
2024/03/12 07:02:08;;;;;;;3.93;2.97;;;;;;;10.65;65.78;95081.63;5008314;28;20203;-90
2024/03/12 07:17:53;;;;;;;2.97;2.57;;;;;;;12.48;58.33;94755.41;4933769;28;21043;-90
2024/03/12 07:20:41;;;;;;;2.50;2.30;;;;;;;12.46;57.85;94734.97;4994939;28;20210;-90
2024/03/12 07:30:01;;;;;;;2.70;2.50;;;;;;;12.72;56.99;94713.31;5041393;28;20690;-91
2024/03/12 07:35:33;;;;;;;3.33;2.43;;;;;;;13.16;55.91;94671.00;5047092;28;20233;-91
2024/03/12 07:38:22;;;;;;;2.40;2.20;;;;;;;13.52;54.99;94620.28;5044969;28;20271;-90
2024/03/12 07:41:10;;;;;;;2.47;2.10;;;;;;;13.57;53.81;94563.53;5050714;28;20205;-92
2024/03/12 07:44:18;;;;;;;2.83;2.00;;;;;;;13.91;53.17;94531.00;5050713;28;20202;-94
2024/03/12 07:47:07;;;;;;;2.40;1.90;;;;;;;14.01;51.76;94449.25;5050333;28;20877;-92
2024/03/12 07:53:22;;;;;;;3.40;2.57;;;;;;;14.63;51.45;94446.91;5056180;28;20232;-91
2024/03/12 07:57:04;;;;;;;2.80;1.88;;;;;;;14.59;50.54;94401.78;5060845;28;20227;-91
2024/03/12 08:30:57;;;;;;;3.50;2.10;;;;;;;11.22;58.32;94770.50;5026311;28;20237;-91
2024/03/12 08:43:02;;;;;;;2.93;2.07;;;;;;;11.07;58.11;94779.25;4929656;29;20336;-90
2024/03/12 10:21:44;;;;;;;3.37;1.63;;;;;;;11.47;57.99;94819.66;6126846;22;21358;-91
2024/03/12 13:16:35;;;;;;;0.90;0.90;;;;;;;12.06;57.15;94811.81;4967129;28;20236;-91
2024/03/12 13:25:57;;;;;;;1.20;1.10;;;;;;;11.43;59.57;94938.63;4975864;28;20218;-89
2024/03/12 13:28:51;;;;;;;1.03;1.00;;;;;;;11.29;59.90;94952.47;5009112;28;20234;-90
2024/03/12 13:31:31;;;;;;;1.03;1.03;;;;;;;11.31;60.25;94978.84;5002763;28;20312;-90
2024/03/12 13:37:52;;;;;;;1.57;1.10;;;;;;;11.33;60.98;95014.75;5001956;28;20321;-89
2024/03/12 13:47:37;;;;;;;;;;;;;;;;;;;;;
2024/03/12 13:59:29;;;;;;;;;;;;;;;;;;;;;
2024/03/12 14:05:46;;;;;;;1.00;1.00;;;;;;;10.91;65.39;95232.13;4995087;28;20207;-91
2024/03/12 14:08:45;;;;;;;1.10;0.90;;;;;;;11.00;65.58;95254.19;5015148;28;20230;-91
2024/03/12 14:14:21;;;;;;;1.57;1.47;;;;;;;11.17;66.21;95262.44;4992611;28;20831;-90
2024/03/12 14:20:05;;;;;;;2.03;1.60;;;;;;;11.10;66.76;95266.75;4913669;29;20202;-90
2024/03/12 14:22:47;;;;;;;1.40;1.30;;;;;;;11.13;66.77;95263.81;4915308;29;20687;-92
2024/03/12 14:28:43;;;;;;;2.47;1.87;;;;;;;11.15;66.75;95269.56;4968431;28;20290;-92
2024/03/12 14:31:35;;;;;;;4.00;1.77;;;;;;;11.19;66.54;95261.25;4970344;28;20294;-91
2024/03/12 14:34:08;;;;;;;2.20;1.80;;;;;;;11.21;66.74;95268.81;4991345;28;20195;-90
2024/03/12 14:39:48;;;;;;;3.30;1.87;;;;;;;11.22;66.81;95281.50;4951050;28;20348;-93
2024/03/12 14:42:30;;;;;;;1.90;1.80;;;;;;;11.26;67.08;95282.72;5002833;28;20202;-90
2024/03/12 14:45:12;;;;;;;2.80;2.47;;;;;;;11.34;67.14;95285.16;5023482;28;20250;-91
2024/03/12 14:47:50;;;;;;;3.70;2.20;;;;;;;11.41;67.07;95282.63;5031921;28;20598;-92
2024/03/12 14:50:34;;;;;;;2.90;1.90;;;;;;;11.36;66.51;95269.50;5012668;28;20564;-91
2024/03/12 14:53:14;;;;;;;;;;;;;;;;;;;;;
2024/03/12 14:56:04;;;;;;;3.00;2.70;;;;;;;11.28;65.36;95211.19;5006231;28;20237;-91
2024/03/12 14:58:43;;;;;;;3.00;2.50;;;;;;;11.22;65.01;95195.66;5011670;28;20879;-91
2024/03/12 15:01:26;;;;;;;2.97;2.77;;;;;;;11.30;64.86;95192.94;5012908;28;20203;-90
2024/03/12 15:04:36;;;;;;;3.13;2.73;;;;;;;11.27;64.72;95185.59;5011983;28;20209;-91
2024/03/12 15:10:15;;;;;;;3.97;2.50;;;;;;;11.39;64.79;95179.69;4999224;28;20238;-90
2024/03/12 15:13:15;;;;;;;3.60;2.60;;;;;;;11.31;64.80;95189.38;5011193;28;20234;-91
2024/03/12 15:16:02;;;;;;;3.33;3.03;;;;;;;11.27;64.73;95183.81;5004893;28;20234;-90
2024/03/12 15:22:04;;;;;;;2.80;2.50;;;;;;;11.37;64.50;95189.41;4995193;28;20210;-91
2024/03/12 15:27:52;;;;;;;4.00;2.67;;;;;;;11.26;63.79;95148.72;5191918;22;20229;-91
2024/03/12 15:45:15;;;;;;;3.73;3.03;;;;;;;11.02;63.45;95129.38;4949077;28;20221;-91
2024/03/12 15:55:25;;;;;;;2.60;2.40;;;;;;;10.58;63.29;95127.09;4919663;29;20220;-90
2024/03/12 17:20:38;;;;;;;;;;;;;;;;;;;;;
2024/03/12 18:18:12;;;;;;;4.30;3.90;;;;;;;10.11;70.99;95505.03;4866244;28;20739;-90
2024/03/12 18:54:14;;;;;;;4.90;4.17;;;;;;;9.79;72.84;95562.69;4882240;29;20236;-90
2024/03/12 19:00:06;;;;;;;4.80;4.30;;;;;;;9.80;74.10;95601.09;4988836;28;20742;-91
2024/03/12 19:03:08;;;;;;;5.37;4.70;;;;;;;9.75;74.73;95625.72;4988885;28;20266;-89
2024/03/12 19:06:08;;;;;;;;;;;;;;;;;;;;;
2024/03/12 19:20:55;;;;;;;;;;;;;;;;;;;;;
2024/03/12 19:27:41;;;;;;;5.93;5.00;;;;;;;9.59;75.78;95631.75;5029777;28;20252;-90
2024/03/12 19:30:30;;;;;;;6.27;5.20;;;;;;;9.61;75.45;95624.69;4996162;28;20293;-91
2024/03/12 19:36:39;;;;;;;6.50;4.77;;;;;;;9.50;74.75;95607.84;4963054;28;20228;-91
2024/03/12 19:51:47;;;;;;;8.60;6.73;;;;;;;9.41;74.59;95600.38;5003536;28;20207;-90
2024/03/12 20:04:18;;;;;;;5.90;4.80;;;;;;;9.36;73.51;95577.75;5033521;28;20205;-91
2024/03/12 20:09:59;;;;;;;5.60;4.87;;;;;;;9.27;74.20;95609.56;4987825;28;20708;-90
2024/03/12 20:23:07;;;;;;;;;;;;;;;;;;;;;
2024/03/12 20:29:21;;;;;;;5.53;4.70;;;;;;;9.22;73.02;95576.69;4985920;28;20199;-90
2024/03/12 20:32:26;;;;;;;4.67;4.17;;;;;;;9.26;72.85;95579.69;4987849;28;20871;-90
2024/03/12 20:38:14;;;;;;;6.77;4.80;;;;;;;9.37;73.20;95597.31;5045479;28;20222;-90
2024/03/12 20:41:20;;;;;;;5.07;4.57;;;;;;;9.36;72.67;95580.31;5069410;28;20216;-91
2024/03/12 20:44:02;;;;;;;5.83;5.00;;;;;;;9.41;72.75;95583.19;5068923;28;20208;-91
2024/03/12 20:50:49;;;;;;;11.60;9.13;;;;;;;9.41;72.51;95582.38;5023036;28;20235;-90
2024/03/12 20:53:26;;;;;;;9.60;7.30;;;;;;;9.47;72.42;95566.25;5048815;28;20239;-91
2024/03/12 23:36:19;;;;;;;;;;;;;;;;;;;;;
2024/03/12 23:39:25;;;;;;;;;;;;;;;;;;;;;
2024/03/12 23:42:33;;;;;;;6.67;5.33;;;;;;;8.98;71.26;95474.88;4918795;28;20227;-91
2024/03/12 23:52:46;;;;;;;7.20;5.37;;;;;;;9.06;71.23;95468.09;5012490;28;20217;-90
2024/03/12 23:56:03;;;;;;;6.50;5.40;;;;;;;9.06;71.78;95480.91;5030571;28;20218;-91
